Time;durP1;ratioP1;P1;durP2;ratioP2;P2;SDS_P1;SDS_P2;PMS_P1;PMS_P2;Temp;Humidity;BMP_temperature;BMP_pressure;BME280_temperature;BME280_humidity;BME280_pressure;Samples;Min_cycle;Max_cycle;Signal;HPM_P1;HPM_P2
2023/05/18 00:00:18;;;;;;;4.15;2.20;;;16.20;56.40;;;;;;3973393;29;20115;-53
2023/05/18 00:03:00;;;;;;;8.32;2.20;;;16.20;56.60;;;;;;3961900;29;20058;-51
2023/05/18 00:05:41;;;;;;;6.78;2.00;;;16.20;56.70;;;;;;3973226;29;20187;-55
2023/05/18 00:08:22;;;;;;;6.83;1.77;;;16.20;56.80;;;;;;3964796;29;20065;-55
2023/05/18 00:11:05;;;;;;;8.45;2.40;;;16.20;56.50;;;;;;3972633;29;20079;-58
2023/05/18 00:13:46;;;;;;;6.00;2.10;;;16.20;56.40;;;;;;3958391;29;20601;-58
2023/05/18 00:16:27;;;;;;;4.95;1.65;;;16.10;56.40;;;;;;3962175;29;20058;-58
2023/05/18 00:19:08;;;;;;;5.15;1.65;;;16.10;56.50;;;;;;3973280;29;20123;-58
2023/05/18 00:21:51;;;;;;;4.55;1.90;;;16.10;56.90;;;;;;3972869;29;20062;-58
2023/05/18 00:24:32;;;;;;;4.55;1.77;;;16.10;57.10;;;;;;3972871;29;20108;-59
2023/05/18 00:27:16;;;;;;;4.20;1.90;;;16.10;57.10;;;;;;3961598;29;20176;-57
2023/05/18 00:29:57;;;;;;;5.65;1.95;;;16.10;57.10;;;;;;3957555;29;20082;-59
2023/05/18 00:32:38;;;;;;;4.10;1.80;;;16.10;57.30;;;;;;3961306;29;20120;-59
2023/05/18 00:35:25;;;;;;;5.63;2.05;;;16.10;57.40;;;;;;3951899;29;20058;-59
2023/05/18 00:38:07;;;;;;;6.25;2.42;;;16.10;57.40;;;;;;3972893;29;20050;-59
2023/05/18 00:40:51;;;;;;;8.55;2.45;;;16.10;57.20;;;;;;3971792;29;20407;-60
2023/05/18 00:43:33;;;;;;;4.28;1.92;;;16.10;57.30;;;;;;3971024;29;20103;-60
2023/05/18 00:46:14;;;;;;;6.65;2.20;;;16.10;57.00;;;;;;3972670;29;20050;-59
2023/05/18 00:49:02;;;;;;;3.97;1.95;;;16.10;57.10;;;;;;3962364;29;20057;-59
2023/05/18 00:51:43;;;;;;;4.35;1.88;;;16.10;57.20;;;;;;3972594;29;20087;-59
2023/05/18 00:54:25;;;;;;;8.13;2.53;;;16.10;57.40;;;;;;3961960;29;20111;-59
2023/05/18 00:57:06;;;;;;;;;;;16.10;57.50;;;;;;3958208;29;20145;-60
2023/05/18 00:59:50;;;;;;;3.05;1.50;;;16.10;57.70;;;;;;3970119;29;19932;-59
2023/05/18 01:02:31;;;;;;;5.35;1.80;;;16.10;58.40;;;;;;3961316;29;20073;-59
2023/05/18 01:05:12;;;;;;;5.07;1.95;;;16.10;58.20;;;;;;3971492;29;20450;-60
2023/05/18 01:07:55;;;;;;;5.85;1.80;;;16.10;58.00;;;;;;3961029;29;20403;-59
2023/05/18 01:10:38;;;;;;;7.93;1.98;;;16.10;58.00;;;;;;3961008;29;20054;-60
2023/05/18 01:13:29;;;;;;;6.53;2.08;;;16.10;58.10;;;;;;3961122;29;20066;-59
2023/05/18 01:16:16;;;;;;;4.43;1.77;;;16.10;58.10;;;;;;3972034;29;20513;-59
2023/05/18 01:19:04;;;;;;;4.50;1.70;;;16.10;58.30;;;;;;3972152;29;20062;-58
2023/05/18 01:21:57;;;;;;;5.30;2.05;;;16.10;58.40;;;;;;3961151;29;20069;-52
2023/05/18 01:24:42;;;;;;;7.95;2.10;;;16.10;58.40;;;;;;3971286;29;20065;-58
2023/05/18 01:27:25;;;;;;;4.55;1.77;;;16.10;59.30;;;;;;3972083;29;20815;-59
2023/05/18 01:30:08;;;;;;;7.38;2.00;;;16.10;58.40;;;;;;3952343;29;20528;-60
2023/05/18 01:32:48;;;;;;;7.53;2.17;;;16.10;58.40;;;;;;3960613;29;20057;-60
2023/05/18 01:35:30;;;;;;;5.55;2.00;;;16.10;58.50;;;;;;3960948;29;20065;-59
2023/05/18 01:38:11;;;;;;;3.50;1.65;;;16.10;58.70;;;;;;3970719;29;20058;-59
2023/05/18 01:40:59;;;;;;;5.93;1.83;;;16.10;58.90;;;;;;3960281;29;20062;-60
2023/05/18 01:43:49;;;;;;;3.42;1.65;;;16.10;59.00;;;;;;3971573;29;20061;-60
2023/05/18 01:46:38;;;;;;;5.60;1.77;;;16.00;58.90;;;;;;3960397;29;20050;-60
2023/05/18 01:49:26;;;;;;;4.70;1.83;;;16.10;58.90;;;;;;3971071;29;20150;-60
2023/05/18 01:52:18;;;;;;;5.10;2.15;;;16.10;58.90;;;;;;3960026;29;20530;-60
2023/05/18 01:55:03;;;;;;;10.75;1.90;;;16.10;58.90;;;;;;3960035;29;20058;-57
2023/05/18 01:57:49;;;;;;;5.72;1.88;;;16.10;59.00;;;;;;3960344;29;20070;-58
2023/05/18 02:00:33;;;;;;;6.07;2.10;;;16.10;59.00;;;;;;3959721;29;20053;-59
2023/05/18 02:03:14;;;;;;;6.28;1.65;;;16.00;59.00;;;;;;3971201;29;20058;-58
2023/05/18 02:05:56;;;;;;;6.25;1.48;;;16.00;59.80;;;;;;3945051;29;20380;-58
2023/05/18 02:08:37;;;;;;;3.03;1.70;;;16.00;59.10;;;;;;3945089;29;20107;-58
2023/05/18 02:11:18;;;;;;;4.80;1.73;;;16.00;59.20;;;;;;3956441;29;20511;-58
2023/05/18 02:13:59;;;;;;;6.87;2.03;;;16.00;59.20;;;;;;3955905;29;20078;-58
2023/05/18 02:16:46;;;;;;;7.70;1.90;;;16.00;59.30;;;;;;3967743;29;20300;-59
2023/05/18 02:19:29;;;;;;;6.97;2.00;;;16.00;59.30;;;;;;3960304;29;20102;-59
2023/05/18 02:22:10;;;;;;;3.55;1.38;;;16.00;59.20;;;;;;3960077;29;20188;-58
2023/05/18 02:24:52;;;;;;;5.33;1.67;;;16.00;59.20;;;;;;3971555;29;20419;-58
2023/05/18 02:27:35;;;;;;;3.00;1.40;;;16.00;59.30;;;;;;3945115;30;20099;-59
2023/05/18 02:30:16;;;;;;;4.28;1.50;;;16.00;59.30;;;;;;3955528;29;20507;-59
2023/05/18 02:32:59;;;;;;;5.70;1.95;;;16.00;59.40;;;;;;3956212;29;20193;-59
2023/05/18 02:35:40;;;;;;;5.78;2.00;;;16.00;59.30;;;;;;3961891;29;20087;-60
2023/05/18 02:38:21;;;;;;;5.97;1.98;;;16.00;59.30;;;;;;3970720;29;20416;-60
2023/05/18 02:41:02;;;;;;;4.18;1.67;;;16.00;59.30;;;;;;3974606;29;20092;-60
2023/05/18 02:43:43;;;;;;;4.40;1.60;;;16.00;59.40;;;;;;3975858;29;20131;-59
2023/05/18 02:46:24;;;;;;;10.63;2.15;;;16.00;59.50;;;;;;3963969;29;20054;-60
2023/05/18 02:49:06;;;;;;;9.15;1.95;;;15.90;59.40;;;;;;3964843;29;20058;-60
2023/05/18 02:51:48;;;;;;;5.55;1.83;;;16.00;60.20;;;;;;3964767;29;20061;-60
2023/05/18 02:54:29;;;;;;;3.40;1.25;;;16.00;59.50;;;;;;3975499;29;20510;-58
2023/05/18 02:57:12;;;;;;;5.07;1.90;;;16.00;59.50;;;;;;3949982;30;20058;-59
2023/05/18 03:00:15;;;;;;;6.82;1.88;;;16.00;59.60;;;;;;3956696;29;20111;-59
2023/05/18 03:02:59;;;;;;;7.43;1.45;;;16.00;59.70;;;;;;3975100;29;20571;-59
2023/05/18 03:05:42;;;;;;;5.70;1.50;;;15.90;59.60;;;;;;3964401;29;20058;-59
2023/05/18 03:08:25;;;;;;;4.47;1.63;;;15.90;59.60;;;;;;3975525;29;20102;-54
2023/05/18 03:11:07;;;;;;;9.75;1.70;;;15.90;59.60;;;;;;3964914;29;20058;-53
2023/05/18 03:13:47;;;;;;;5.00;1.67;;;15.90;59.70;;;;;;3964592;29;20063;-54
2023/05/18 03:16:29;;;;;;;6.65;1.92;;;15.90;59.70;;;;;;3974212;29;20419;-54
2023/05/18 03:19:12;;;;;;;5.38;1.58;;;15.90;59.70;;;;;;3964465;29;20062;-55
2023/05/18 03:21:56;;;;;;;4.32;1.50;;;15.90;59.70;;;;;;3964017;29;20065;-53
2023/05/18 03:24:39;;;;;;;4.03;1.50;;;15.90;59.60;;;;;;3974065;29;20053;-55
2023/05/18 03:27:25;;;;;;;5.40;1.80;;;15.90;59.60;;;;;;3963174;29;20066;-56
2023/05/18 03:30:08;;;;;;;5.35;1.63;;;15.90;59.60;;;;;;3974256;29;20057;-55
2023/05/18 03:32:49;;;;;;;3.28;1.40;;;15.90;59.80;;;;;;3963685;29;20110;-55
2023/05/18 03:35:31;;;;;;;6.90;1.95;;;15.90;59.90;;;;;;3975426;29;20629;-53
2023/05/18 03:38:13;;;;;;;6.75;1.65;;;15.90;59.90;;;;;;3974804;29;20066;-53
2023/05/18 03:40:58;;;;;;;4.15;1.42;;;15.90;59.80;;;;;;3964573;29;20094;-54
2023/05/18 03:43:40;;;;;;;4.78;1.70;;;15.90;59.80;;;;;;3964489;29;20069;-55
2023/05/18 03:46:20;;;;;;;6.27;1.83;;;15.80;59.60;;;;;;3960744;29;20058;-54
2023/05/18 03:49:03;;;;;;;7.20;1.70;;;15.90;59.60;;;;;;3949695;29;20057;-59
2023/05/18 03:51:50;;;;;;;6.32;1.70;;;15.90;59.60;;;;;;3957953;29;20514;-59
2023/05/18 03:54:32;;;;;;;5.73;1.70;;;15.80;59.70;;;;;;3961807;29;20057;-59
2023/05/18 03:57:13;;;;;;;5.18;1.67;;;15.90;59.90;;;;;;3973516;29;20122;-59
2023/05/18 03:59:54;;;;;;;4.80;1.67;;;15.90;59.90;;;;;;3962100;29;20073;-59
2023/05/18 04:02:36;;;;;;;11.18;1.70;;;15.90;59.90;;;;;;3960946;29;20069;-59
2023/05/18 04:05:17;;;;;;;5.18;1.80;;;15.80;59.80;;;;;;3973172;29;20065;-54
2023/05/18 04:07:59;;;;;;;6.18;1.80;;;15.80;59.90;;;;;;3961971;29;20187;-53
2023/05/18 04:10:42;;;;;;;3.90;2.07;;;15.90;60.00;;;;;;3961775;29;20054;-56
2023/05/18 04:13:22;;;;;;;5.82;1.83;;;15.80;60.00;;;;;;3961621;29;20300;-53
2023/05/18 04:16:04;;;;;;;3.50;1.35;;;15.80;60.00;;;;;;3972892;29;20062;-52
2023/05/18 04:18:45;;;;;;;6.05;1.70;;;15.80;60.10;;;;;;3972804;29;20066;-55
2023/05/18 04:21:28;;;;;;;6.57;1.80;;;15.90;60.20;;;;;;3972600;29;20086;-56
2023/05/18 04:24:13;;;;;;;8.60;1.60;;;15.80;60.30;;;;;;3961528;29;20192;-54
2023/05/18 04:26:58;;;;;;;5.10;1.70;;;15.80;60.40;;;;;;3961810;29;20058;-55
2023/05/18 04:29:39;;;;;;;5.03;1.75;;;15.80;60.90;;;;;;3972896;29;20050;-56
2023/05/18 04:32:20;;;;;;;4.00;1.33;;;15.80;60.40;;;;;;3951135;29;20065;-55
2023/05/18 04:35:01;;;;;;;3.13;1.38;;;15.80;60.40;;;;;;3961546;29;20049;-56
2023/05/18 04:37:42;;;;;;;4.40;1.98;;;15.80;60.60;;;;;;3972608;29;20173;-55
2023/05/18 04:40:32;;;;;;;5.85;2.05;;;15.80;60.80;;;;;;3961239;29;20062;-52
2023/05/18 04:43:15;;;;;;;7.82;1.67;;;15.80;60.80;;;;;;3962259;29;20576;-52
2023/05/18 04:45:56;;;;;;;4.80;2.03;;;15.80;60.60;;;;;;3957198;29;20053;-53
2023/05/18 04:48:37;;;;;;;3.85;1.67;;;15.80;60.40;;;;;;3946428;29;20108;-55
2023/05/18 04:51:20;;;;;;;4.07;2.10;;;15.80;60.40;;;;;;3957223;29;20066;-54
2023/05/18 04:54:02;;;;;;;2.90;1.35;;;15.80;60.30;;;;;;3960952;29;20141;-55
2023/05/18 04:56:42;;;;;;;;;;;15.80;59.90;;;;;;3946466;29;20408;-55
2023/05/18 04:59:27;;;;;;;8.37;1.80;;;15.80;60.00;;;;;;3957196;29;19933;-53
2023/05/18 05:02:08;;;;;;;6.47;1.73;;;15.80;61.00;;;;;;3956335;29;20066;-54
2023/05/18 05:04:49;;;;;;;3.08;1.55;;;15.80;60.70;;;;;;3961431;29;20066;-53
2023/05/18 05:07:30;;;;;;;4.60;1.60;;;15.80;60.60;;;;;;3960918;29;20057;-52
2023/05/18 05:10:11;;;;;;;6.32;2.35;;;15.80;61.40;;;;;;3960458;29;20313;-51
2023/05/18 05:12:52;;;;;;;5.72;2.05;;;15.80;61.30;;;;;;3970790;29;20049;-53
2023/05/18 05:15:37;;;;;;;2.50;1.50;;;15.80;60.50;;;;;;3949670;29;20058;-56
2023/05/18 05:18:21;;;;;;;4.88;1.67;;;15.80;60.40;;;;;;3969920;29;20200;-58
2023/05/18 05:21:06;;;;;;;5.43;1.90;;;15.80;60.60;;;;;;3969175;29;20062;-53
2023/05/18 05:23:49;;;;;;;7.85;1.95;;;15.80;60.60;;;;;;3966692;29;20517;-51
2023/05/18 05:26:32;;;;;;;6.05;1.70;;;15.80;60.50;;;;;;3956316;29;20403;-55
2023/05/18 05:29:19;;;;;;;8.32;2.17;;;15.90;60.20;;;;;;3956680;29;20545;-54
2023/05/18 05:32:09;;;;;;;5.32;1.75;;;15.90;60.00;;;;;;3955656;29;20567;-52
2023/05/18 05:34:50;;;;;;;5.40;1.80;;;15.90;59.70;;;;;;3960321;29;20054;-50
2023/05/18 05:37:34;;;;;;;9.27;2.17;;;15.80;60.10;;;;;;3919292;29;20258;-51
2023/05/18 05:40:18;;;;;;;3.70;1.50;;;15.90;60.00;;;;;;3954448;29;20058;-51
2023/05/18 05:43:02;;;;;;;4.95;1.70;;;15.80;60.10;;;;;;3953743;29;20070;-50
2023/05/18 05:45:46;;;;;;;3.03;1.80;;;15.80;60.10;;;;;;3953153;29;20180;-52
2023/05/18 05:48:29;;;;;;;6.55;1.80;;;15.80;59.90;;;;;;3964844;29;20066;-54
2023/05/18 05:51:11;;;;;;;8.23;1.88;;;15.80;59.90;;;;;;3947171;29;20069;-52
2023/05/18 05:53:53;;;;;;;;;;;15.80;59.90;;;;;;3958226;29;20057;-51
2023/05/18 05:56:34;;;;;;;5.07;1.63;;;15.80;60.10;;;;;;3965795;29;20415;-53
2023/05/18 05:59:15;;;;;;;7.50;2.03;;;15.80;61.20;;;;;;3967172;29;20630;-50
2023/05/18 06:01:56;;;;;;;6.13;1.48;;;15.80;60.30;;;;;;3967648;29;20061;-54
2023/05/18 06:04:39;;;;;;;4.78;1.60;;;15.80;60.10;;;;;;3956844;29;20065;-52
2023/05/18 06:07:21;;;;;;;8.13;2.38;;;15.80;59.80;;;;;;3957096;29;20392;-50
2023/05/18 06:10:06;;;;;;;4.63;1.88;;;15.80;59.40;;;;;;3957408;29;20054;-49
2023/05/18 06:12:47;;;;;;;4.65;1.83;;;15.80;59.70;;;;;;3956881;29;21038;-51
2023/05/18 06:15:29;;;;;;;4.80;2.08;;;15.80;59.20;;;;;;3955654;29;20993;-55
2023/05/18 06:18:10;;;;;;;3.80;1.58;;;15.80;59.70;;;;;;3957033;29;20061;-56
2023/05/18 06:20:54;;;;;;;5.63;1.75;;;15.80;58.80;;;;;;3957329;29;20123;-56
2023/05/18 06:23:36;;;;;;;5.70;1.88;;;15.80;59.00;;;;;;3967509;29;20066;-55
2023/05/18 06:26:51;;;;;;;6.05;1.85;;;15.80;59.30;;;;;;3973764;29;20082;-56
2023/05/18 06:29:55;;;;;;;7.10;2.15;;;15.80;59.30;;;;;;3957020;29;20173;-56
2023/05/18 06:32:55;;;;;;;8.05;2.03;;;15.90;59.40;;;;;;3957074;29;20416;-55
2023/05/18 06:35:37;;;;;;;4.80;1.52;;;15.90;59.20;;;;;;3964364;29;20070;-56
2023/05/18 06:38:19;;;;;;;5.13;1.90;;;15.90;59.00;;;;;;3967048;29;20095;-50
2023/05/18 06:41:00;;;;;;;6.88;2.13;;;15.90;57.90;;;;;;3967734;29;20424;-50
2023/05/18 06:43:41;;;;;;;6.47;2.17;;;15.90;58.40;;;;;;3968525;29;20138;-57
2023/05/18 06:46:43;;;;;;;2.85;1.65;;;15.90;58.10;;;;;;3954527;29;20061;-55
2023/05/18 06:49:31;;;;;;;5.05;1.85;;;16.00;58.10;;;;;;3956948;29;20058;-56
2023/05/18 06:52:15;;;;;;;3.20;1.55;;;16.10;58.00;;;;;;3968424;29;20062;-56
2023/05/18 06:55:00;;;;;;;5.13;1.50;;;16.10;58.20;;;;;;3966755;29;20847;-56
2023/05/18 06:57:41;;;;;;;6.75;1.63;;;16.20;58.40;;;;;;3967107;29;20142;-54
2023/05/18 07:00:22;;;;;;;6.53;1.67;;;16.30;58.20;;;;;;3966885;29;20066;-54
2023/05/18 07:03:04;;;;;;;9.30;1.92;;;16.40;56.70;;;;;;3956075;29;20106;-55
2023/05/18 07:05:45;;;;;;;6.15;1.70;;;16.50;57.60;;;;;;3966628;29;20087;-55
2023/05/18 07:08:26;;;;;;;4.88;1.67;;;16.60;58.10;;;;;;3967071;29;20061;-55
2023/05/18 07:11:09;;;;;;;2.53;1.35;;;16.60;58.00;;;;;;3955454;29;20101;-56
2023/05/18 07:13:50;;;;;;;6.70;1.77;;;16.60;57.20;;;;;;3967773;29;20054;-55
2023/05/18 07:16:31;;;;;;;3.92;1.42;;;16.60;58.20;;;;;;3956853;29;20062;-56
2023/05/18 07:19:12;;;;;;;4.07;1.80;;;16.60;58.40;;;;;;3966670;29;20139;-57
2023/05/18 07:21:53;;;;;;;7.57;1.83;;;16.60;57.70;;;;;;3967906;29;20192;-54
2023/05/18 07:24:34;;;;;;;5.45;1.88;;;16.50;58.10;;;;;;3967406;29;20058;-52
2023/05/18 07:27:16;;;;;;;8.77;1.90;;;16.50;58.50;;;;;;3969532;29;20062;-52
2023/05/18 07:29:57;;;;;;;5.15;1.92;;;16.50;58.20;;;;;;3970515;29;20702;-51
2023/05/18 07:32:38;;;;;;;5.18;1.95;;;16.50;57.60;;;;;;3969606;29;20518;-50
2023/05/18 07:35:20;;;;;;;7.38;2.47;;;16.50;57.50;;;;;;3971006;29;20150;-51
2023/05/18 07:38:01;;;;;;;5.55;1.90;;;16.40;57.50;;;;;;3970556;29;20057;-50
2023/05/18 07:40:42;;;;;;;6.25;2.47;;;16.40;57.80;;;;;;3970709;29;20456;-51
2023/05/18 07:43:24;;;;;;;6.65;1.92;;;16.40;57.70;;;;;;3969256;29;20070;-53
2023/05/18 07:46:05;;;;;;;5.40;1.85;;;16.40;57.90;;;;;;3970481;29;20120;-51
2023/05/18 07:48:46;;;;;;;4.75;1.90;;;16.40;57.80;;;;;;3970204;29;20081;-52
2023/05/18 07:51:28;;;;;;;4.35;1.77;;;16.40;57.70;;;;;;3970625;29;21169;-54
2023/05/18 07:54:09;;;;;;;7.88;2.38;;;16.30;57.80;;;;;;3970289;29;20165;-51
2023/05/18 07:56:50;;;;;;;5.55;1.77;;;16.30;57.70;;;;;;3970682;29;20077;-52
2023/05/18 07:59:32;;;;;;;3.58;1.88;;;16.40;57.70;;;;;;3970613;29;21034;-52
2023/05/18 08:02:15;;;;;;;6.72;2.00;;;16.40;57.70;;;;;;3969891;29;20107;-51
2023/05/18 08:04:56;;;;;;;6.82;1.90;;;16.40;57.70;;;;;;3969913;29;20062;-53
2023/05/18 08:07:37;;;;;;;6.60;1.55;;;16.40;58.30;;;;;;3969430;29;20617;-54
2023/05/18 08:10:18;;;;;;;3.90;1.92;;;16.40;58.00;;;;;;3970311;29;20150;-50
2023/05/18 08:12:59;;;;;;;5.85;1.48;;;16.50;57.80;;;;;;3970947;29;20065;-53
2023/05/18 08:15:41;;;;;;;3.22;1.50;;;16.50;57.70;;;;;;3970214;29;20070;-51
2023/05/18 08:18:22;;;;;;;8.77;1.58;;;16.50;58.00;;;;;;3970620;29;20101;-56
2023/05/18 08:21:06;;;;;;;5.25;1.40;;;16.50;57.10;;;;;;3970420;29;20123;-55
2023/05/18 08:23:47;;;;;;;7.45;2.05;;;16.50;56.20;;;;;;3969392;29;20235;-55
2023/05/18 08:26:28;;;;;;;6.13;1.88;;;16.60;56.30;;;;;;3969908;29;20180;-55
2023/05/18 08:29:09;;;;;;;3.67;1.52;;;16.60;55.00;;;;;;3970532;29;20058;-55
2023/05/18 08:31:52;;;;;;;6.18;1.80;;;16.60;55.00;;;;;;3968407;29;20107;-54
2023/05/18 08:34:33;;;;;;;3.05;1.50;;;16.60;55.30;;;;;;3970549;29;20057;-57
2023/05/18 08:37:14;;;;;;;3.63;1.40;;;16.60;55.60;;;;;;3970313;29;20125;-56
2023/05/18 08:39:56;;;;;;;4.32;1.40;;;16.60;55.30;;;;;;3970109;29;20079;-54
2023/05/18 08:42:43;;;;;;;2.85;1.20;;;16.60;56.10;;;;;;3968390;29;20070;-55
2023/05/18 08:45:36;;;;;;;6.93;1.92;;;16.60;56.60;;;;;;3969462;29;20061;-51
2023/05/18 08:48:21;;;;;;;6.20;1.95;;;16.60;57.20;;;;;;3959076;29;20771;-51
2023/05/18 08:51:08;;;;;;;3.20;1.52;;;16.60;57.50;;;;;;3970483;29;20475;-53
2023/05/18 08:53:52;;;;;;;6.57;1.40;;;16.70;57.70;;;;;;3969418;29;20203;-50
2023/05/18 08:56:34;;;;;;;5.82;1.60;;;16.70;57.40;;;;;;3969770;29;20058;-50
2023/05/18 08:59:16;;;;;;;;;;;16.70;57.00;;;;;;3969798;29;20057;-53
2023/05/18 09:01:58;;;;;;;3.45;1.90;;;16.80;57.30;;;;;;3969574;29;20293;-55
2023/05/18 09:04:41;;;;;;;;;;;16.80;56.50;;;;;;3970188;29;20411;-55
2023/05/18 09:07:23;;;;;;;3.00;1.38;;;16.80;54.80;;;;;;3967770;29;19935;-56
2023/05/18 09:10:05;;;;;;;3.22;1.20;;;16.80;54.70;;;;;;3969056;29;20470;-56
2023/05/18 09:12:47;;;;;;;5.40;1.40;;;16.80;54.40;;;;;;3969412;29;20057;-55
2023/05/18 09:15:28;;;;;;;6.22;1.98;;;16.80;54.80;;;;;;3968563;29;20061;-54
2023/05/18 09:18:09;;;;;;;2.13;1.92;;;16.90;54.80;;;;;;3969247;29;20075;-51
2023/05/18 09:20:52;;;;;;;3.67;1.90;;;16.90;54.70;;;;;;3958154;29;20143;-50
2023/05/18 09:23:33;;;;;;;5.82;1.92;;;16.90;55.10;;;;;;3969164;29;20065;-53
2023/05/18 09:26:14;;;;;;;3.47;1.58;;;16.90;54.90;;;;;;3969058;29;20066;-51
2023/05/18 09:28:55;;;;;;;4.03;1.77;;;16.90;55.60;;;;;;3969449;29;20715;-54
2023/05/18 09:31:37;;;;;;;4.93;1.60;;;16.90;55.30;;;;;;3968841;29;20067;-53
2023/05/18 09:34:18;;;;;;;4.70;1.73;;;17.00;55.30;;;;;;3967486;29;20136;-53
2023/05/18 09:37:01;;;;;;;4.95;1.75;;;17.00;55.40;;;;;;3968893;29;20073;-53
2023/05/18 09:39:42;;;;;;;4.63;1.33;;;17.00;55.30;;;;;;3969116;29;20457;-53
2023/05/18 09:42:27;;;;;;;3.13;1.60;;;17.00;55.50;;;;;;3969300;29;20112;-54
2023/05/18 09:45:17;;;;;;;5.00;1.77;;;17.00;55.50;;;;;;3967127;29;20115;-54
2023/05/18 09:47:58;;;;;;;7.68;2.33;;;17.00;55.40;;;;;;3957556;29;20368;-52
2023/05/18 09:50:39;;;;;;;9.17;1.77;;;17.10;57.10;;;;;;3967890;29;20458;-55
2023/05/18 09:53:21;;;;;;;10.70;2.38;;;17.10;57.10;;;;;;3968846;29;20062;-52
2023/05/18 09:56:05;;;;;;;4.63;1.60;;;17.10;57.10;;;;;;3969172;29;20087;-51
2023/05/18 09:58:46;;;;;;;5.07;1.40;;;17.10;57.00;;;;;;3969178;29;20065;-51
2023/05/18 10:01:28;;;;;;;6.50;2.13;;;17.20;56.30;;;;;;3969191;29;20075;-52
2023/05/18 10:04:09;;;;;;;4.15;1.75;;;17.20;57.10;;;;;;3968900;29;20066;-50
2023/05/18 10:06:50;;;;;;;7.25;1.80;;;17.20;55.90;;;;;;3969197;29;20045;-50
2023/05/18 10:09:33;;;;;;;4.93;2.10;;;17.20;56.00;;;;;;3968458;29;20092;-52
2023/05/18 10:12:14;;;;;;;6.45;1.80;;;17.20;56.00;;;;;;3968525;29;20404;-53
2023/05/18 10:14:55;;;;;;;5.78;1.90;;;17.20;55.30;;;;;;3968107;29;20061;-54
2023/05/18 10:17:37;;;;;;;3.72;1.52;;;17.30;55.10;;;;;;3968503;29;20071;-54
2023/05/18 10:20:21;;;;;;;4.20;1.45;;;17.30;55.70;;;;;;3967859;29;20138;-52
2023/05/18 10:23:07;;;;;;;4.57;1.95;;;17.30;55.20;;;;;;3968466;29;20061;-54
2023/05/18 10:25:50;;;;;;;5.97;1.73;;;17.30;55.40;;;;;;3968292;29;20058;-54
2023/05/18 10:28:36;;;;;;;6.47;1.70;;;17.30;54.60;;;;;;3967954;29;20123;-54
2023/05/18 10:31:18;;;;;;;5.13;1.67;;;17.40;54.70;;;;;;3966917;29;20077;-53
2023/05/18 10:33:59;;;;;;;3.92;1.90;;;17.40;55.00;;;;;;3968910;29;20046;-50
2023/05/18 10:36:41;;;;;;;7.22;2.88;;;17.40;54.60;;;;;;3955989;29;20054;-52
2023/05/18 10:39:22;;;;;;;5.22;1.98;;;17.40;54.40;;;;;;3955903;29;20622;-51
2023/05/18 10:42:07;;;;;;;4.82;2.00;;;17.40;55.00;;;;;;3960380;29;20107;-53
2023/05/18 10:44:50;;;;;;;6.60;1.88;;;17.40;55.70;;;;;;3970619;29;20077;-52
2023/05/18 10:47:31;;;;;;;6.50;2.47;;;17.40;55.30;;;;;;3955825;29;20473;-51
2023/05/18 10:50:15;;;;;;;5.03;1.80;;;17.40;54.30;;;;;;3945342;29;20156;-53
2023/05/18 10:52:58;;;;;;;4.78;1.85;;;17.40;54.60;;;;;;3966475;29;20069;-50
2023/05/18 10:55:39;;;;;;;9.27;2.30;;;17.40;54.60;;;;;;3970288;29;20403;-51
2023/05/18 10:58:24;;;;;;;5.40;2.22;;;17.40;54.20;;;;;;3970849;29;20411;-53
2023/05/18 11:01:09;;;;;;;6.07;1.95;;;17.40;54.20;;;;;;3959848;29;20066;-55
2023/05/18 11:03:49;;;;;;;4.57;1.92;;;17.40;53.80;;;;;;3959083;29;20112;-51
2023/05/18 11:06:32;;;;;;;5.97;1.92;;;17.40;54.30;;;;;;3973556;29;20107;-53
2023/05/18 11:09:23;;;;;;;6.97;2.38;;;17.40;54.10;;;;;;3979395;29;20062;-49
2023/05/18 11:12:11;;;;;;;3.78;1.67;;;17.40;54.20;;;;;;3973474;29;20118;-51
2023/05/18 11:14:56;;;;;;;5.13;2.10;;;17.40;54.30;;;;;;3974102;29;20057;-53
2023/05/18 11:17:37;;;;;;;4.93;1.73;;;17.40;54.40;;;;;;3973753;29;20062;-51
2023/05/18 11:20:17;;;;;;;6.83;1.80;;;17.40;54.00;;;;;;3973125;29;20845;-51
2023/05/18 11:23:02;;;;;;;8.63;2.10;;;17.40;54.00;;;;;;3973877;29;20074;-51
2023/05/18 11:25:44;;;;;;;6.25;2.80;;;17.40;54.10;;;;;;3962570;29;20061;-52
2023/05/18 11:28:25;;;;;;;3.35;1.83;;;17.40;53.80;;;;;;3973123;29;20085;-53
2023/05/18 11:31:07;;;;;;;3.35;2.00;;;17.40;54.10;;;;;;3972027;29;20061;-52
2023/05/18 11:33:48;;;;;;;4.53;2.00;;;17.50;54.70;;;;;;3973827;29;20062;-51
2023/05/18 11:36:31;;;;;;;6.75;1.77;;;17.60;53.50;;;;;;3973661;29;20130;-56
2023/05/18 11:39:23;;;;;;;4.95;1.95;;;17.50;53.80;;;;;;3973210;29;20115;-57
2023/05/18 11:42:07;;;;;;;5.85;2.03;;;17.60;53.80;;;;;;3973432;29;20597;-56
2023/05/18 11:44:54;;;;;;;8.02;2.42;;;17.60;54.30;;;;;;3973401;29;20071;-56
2023/05/18 11:47:39;;;;;;;8.10;2.33;;;17.60;54.60;;;;;;3973326;29;20195;-57
2023/05/18 11:50:20;;;;;;;6.57;2.47;;;17.60;54.60;;;;;;3972877;29;20570;-56
2023/05/18 11:53:01;;;;;;;5.00;2.70;;;17.70;55.00;;;;;;3973326;29;20792;-56
2023/05/18 11:55:42;;;;;;;3.15;1.77;;;17.70;53.80;;;;;;3973115;29;20058;-56
2023/05/18 11:58:24;;;;;;;8.00;2.13;;;17.70;53.60;;;;;;3973058;29;20609;-56
2023/05/18 12:01:10;;;;;;;7.13;2.45;;;17.70;53.40;;;;;;3958143;29;20767;-56
2023/05/18 12:03:53;;;;;;;8.90;2.72;;;17.70;53.50;;;;;;3969583;29;20135;-55
2023/05/18 12:06:35;;;;;;;6.15;2.65;;;17.70;53.20;;;;;;3973246;29;20049;-57
2023/05/18 12:09:16;;;;;;;4.80;2.05;;;17.70;53.20;;;;;;3972894;29;20143;-56
2023/05/18 12:11:57;;;;;;;5.88;2.45;;;17.70;53.70;;;;;;3973131;29;20618;-57
2023/05/18 12:14:41;;;;;;;10.30;2.45;;;17.70;53.50;;;;;;3972554;29;20526;-57
2023/05/18 12:17:23;;;;;;;5.50;2.10;;;17.80;53.40;;;;;;3958197;29;20066;-57
2023/05/18 12:20:07;;;;;;;10.77;2.20;;;17.80;53.40;;;;;;3972935;29;20058;-56
2023/05/18 12:22:50;;;;;;;4.80;1.77;;;17.80;53.40;;;;;;3972179;29;20061;-57
2023/05/18 12:25:32;;;;;;;6.07;1.90;;;17.80;53.40;;;;;;3972803;29;20067;-55
2023/05/18 12:28:16;;;;;;;4.38;2.25;;;17.80;53.60;;;;;;3972025;29;20062;-57
2023/05/18 12:30:57;;;;;;;7.72;1.98;;;17.80;53.60;;;;;;3972443;29;20054;-57
2023/05/18 12:33:38;;;;;;;4.80;2.13;;;17.80;53.60;;;;;;3972443;29;20062;-56
2023/05/18 12:36:22;;;;;;;5.57;2.33;;;17.80;53.50;;;;;;3972289;29;20070;-55
2023/05/18 12:39:03;;;;;;;7.38;2.55;;;17.80;53.50;;;;;;3972334;29;20067;-55
2023/05/18 12:41:44;;;;;;;5.63;2.60;;;17.80;53.60;;;;;;3971109;29;20058;-56
2023/05/18 12:44:25;;;;;;;7.60;2.37;;;17.80;53.50;;;;;;3972048;29;20107;-55
2023/05/18 12:47:06;;;;;;;10.15;2.65;;;17.80;53.80;;;;;;3957795;29;20296;-54
2023/05/18 12:49:49;;;;;;;4.03;2.15;;;17.80;54.20;;;;;;3957942;29;20518;-56
2023/05/18 12:52:31;;;;;;;6.47;1.90;;;17.80;54.20;;;;;;3957513;29;20066;-57
2023/05/18 12:55:20;;;;;;;6.43;1.70;;;17.70;54.10;;;;;;3957520;29;20538;-56
2023/05/18 12:58:02;;;;;;;6.00;2.55;;;17.70;54.20;;;;;;3965301;29;20061;-57
2023/05/18 13:00:44;;;;;;;6.53;2.38;;;17.70;54.20;;;;;;3972515;29;20069;-56
2023/05/18 13:03:25;;;;;;;4.95;2.05;;;17.70;55.00;;;;;;3972672;29;20141;-54
2023/05/18 13:06:08;;;;;;;5.95;2.15;;;17.70;54.30;;;;;;3972320;29;20053;-55
2023/05/18 13:08:54;;;;;;;5.13;2.30;;;17.70;54.40;;;;;;3960320;29;20062;-55
2023/05/18 13:11:35;;;;;;;5.20;2.35;;;17.70;54.40;;;;;;3971795;29;20054;-57
2023/05/18 13:14:21;;;;;;;5.20;2.17;;;17.70;54.50;;;;;;3971580;29;20131;-56
2023/05/18 13:17:02;;;;;;;4.82;1.90;;;17.70;54.70;;;;;;3959936;29;20510;-58
2023/05/18 13:19:43;;;;;;;7.68;1.98;;;17.60;54.80;;;;;;3971682;29;20071;-55
2023/05/18 13:22:24;;;;;;;4.95;1.90;;;17.70;54.80;;;;;;3972872;29;20473;-55
2023/05/18 13:25:08;;;;;;;5.72;2.60;;;17.60;54.80;;;;;;3972001;29;20123;-55
2023/05/18 13:27:49;;;;;;;8.27;1.75;;;17.60;54.80;;;;;;3971554;29;20058;-57
2023/05/18 13:30:30;;;;;;;;;;;17.60;54.70;;;;;;3971936;29;20061;-57
2023/05/18 13:33:12;;;;;;;6.57;2.95;;;17.70;54.90;;;;;;3968004;29;19998;-56
2023/05/18 13:35:52;;;;;;;6.15;2.15;;;17.70;55.00;;;;;;3961730;29;20157;-57
2023/05/18 13:38:36;;;;;;;3.63;2.05;;;17.70;55.00;;;;;;3971545;29;20058;-55
2023/05/18 13:41:18;;;;;;;7.45;2.03;;;17.70;55.00;;;;;;3970848;29;20135;-55
2023/05/18 13:43:58;;;;;;;5.03;1.65;;;17.70;55.00;;;;;;3970364;29;20054;-57
2023/05/18 13:46:39;;;;;;;4.55;2.10;;;17.70;55.00;;;;;;3971056;29;20103;-56
2023/05/18 13:49:20;;;;;;;15.93;2.53;;;17.70;55.00;;;;;;3956534;29;20163;-56
2023/05/18 13:52:01;;;;;;;3.28;1.70;;;17.70;54.90;;;;;;3956502;29;20054;-56
2023/05/18 13:54:42;;;;;;;7.95;2.40;;;17.70;55.70;;;;;;3971106;29;20057;-56
2023/05/18 13:57:25;;;;;;;6.85;2.45;;;17.70;55.10;;;;;;3971514;29;20206;-56
2023/05/18 14:00:10;;;;;;;5.05;1.90;;;17.70;55.10;;;;;;3961998;29;20054;-57
2023/05/18 14:02:53;;;;;;;7.95;2.28;;;17.70;55.20;;;;;;3967194;29;20053;-56
2023/05/18 14:05:35;;;;;;;6.38;2.00;;;17.70;55.30;;;;;;3956442;29;20141;-57
2023/05/18 14:08:16;;;;;;;;;;;17.70;55.30;;;;;;3956828;29;20500;-56